Terminal Aerodrome Forecast
Issued by NWS Upton, NY

Home | Current Version | Previous Version | Text Only | Print | Product List | Glossary On
Versions: 1 2 3 4 5 6 7 8 9 10 11 12 13 14 15 16 17 18 19 20 21 22 23 24 25 26 27 28 29 30 31 32 33 34 35 36
791
FTUS41 KOKX 210229 AAA
TAFLGA
TAF AMD
KLGA 210229Z 2102/2124 31008KT P6SM SKC
     FM210600 36005KT P6SM SKC
     FM211200 VRB03KT P6SM SKC
     FM211600 19006KT P6SM SKC=

USA.gov is the U.S. government's official web portal to all federal, state and local government web resources and services.